sensor_id;sensor_type;location;lat;lon;timestamp;P1;durP1;ratioP1;P2;durP2;ratioP2
52072;SDS011;38074;51.232;6.826;2022-09-12T00:05:42;12.73;;;8.25;;
52072;SDS011;38074;51.232;6.826;2022-09-12T00:12:58;12.55;;;8.18;;
52072;SDS011;38074;51.232;6.826;2022-09-12T00:20:15;12.53;;;7.37;;
52072;SDS011;38074;51.232;6.826;2022-09-12T00:27:31;9.15;;;7.50;;
52072;SDS011;38074;51.232;6.826;2022-09-12T00:34:46;11.60;;;7.97;;
52072;SDS011;38074;51.232;6.826;2022-09-12T00:42:02;10.50;;;7.57;;
52072;SDS011;38074;51.232;6.826;2022-09-12T00:56:40;11.27;;;7.68;;
52072;SDS011;38074;51.232;6.826;2022-09-12T01:03:58;15.38;;;7.80;;
52072;SDS011;38074;51.232;6.826;2022-09-12T01:11:14;12.52;;;7.85;;
52072;SDS011;38074;51.232;6.826;2022-09-12T01:48:45;9.75;;;6.57;;
52072;SDS011;38074;51.232;6.826;2022-09-12T01:56:11;8.93;;;6.43;;
52072;SDS011;38074;51.232;6.826;2022-09-12T02:11:13;14.20;;;7.20;;
52072;SDS011;38074;51.232;6.826;2022-09-12T02:18:29;10.32;;;6.43;;
52072;SDS011;38074;51.232;6.826;2022-09-12T02:25:47;11.10;;;6.45;;
52072;SDS011;38074;51.232;6.826;2022-09-12T02:33:19;11.10;;;6.30;;
52072;SDS011;38074;51.232;6.826;2022-09-12T02:40:41;7.15;;;5.70;;
52072;SDS011;38074;51.232;6.826;2022-09-12T02:47:58;8.40;;;5.60;;
52072;SDS011;38074;51.232;6.826;2022-09-12T02:55:27;8.05;;;6.20;;
52072;SDS011;38074;51.232;6.826;2022-09-12T03:02:48;7.00;;;5.50;;
52072;SDS011;38074;51.232;6.826;2022-09-12T03:25:13;9.80;;;5.40;;
52072;SDS011;38074;51.232;6.826;2022-09-12T03:32:40;7.30;;;4.75;;
52072;SDS011;38074;51.232;6.826;2022-09-12T03:40:03;8.47;;;5.30;;
52072;SDS011;38074;51.232;6.826;2022-09-12T03:47:20;10.25;;;5.55;;
52072;SDS011;38074;51.232;6.826;2022-09-12T03:54:35;6.23;;;4.90;;
52072;SDS011;38074;51.232;6.826;2022-09-12T04:01:51;8.02;;;5.05;;
52072;SDS011;38074;51.232;6.826;2022-09-12T04:09:06;9.10;;;4.67;;
52072;SDS011;38074;51.232;6.826;2022-09-12T04:16:22;8.43;;;4.93;;
52072;SDS011;38074;51.232;6.826;2022-09-12T04:23:37;7.47;;;4.83;;
52072;SDS011;38074;51.232;6.826;2022-09-12T04:30:53;9.82;;;6.10;;
52072;SDS011;38074;51.232;6.826;2022-09-12T04:38:09;7.40;;;4.17;;
52072;SDS011;38074;51.232;6.826;2022-09-12T04:45:25;6.57;;;4.13;;
52072;SDS011;38074;51.232;6.826;2022-09-12T04:52:40;5.47;;;4.45;;
52072;SDS011;38074;51.232;6.826;2022-09-12T04:59:56;5.18;;;3.95;;
52072;SDS011;38074;51.232;6.826;2022-09-12T05:07:12;6.57;;;4.40;;
52072;SDS011;38074;51.232;6.826;2022-09-12T05:14:28;5.53;;;3.87;;
52072;SDS011;38074;51.232;6.826;2022-09-12T05:21:43;4.43;;;3.65;;
52072;SDS011;38074;51.232;6.826;2022-09-12T05:28:59;7.17;;;4.20;;
52072;SDS011;38074;51.232;6.826;2022-09-12T05:36:15;7.23;;;3.80;;
52072;SDS011;38074;51.232;6.826;2022-09-12T05:43:33;6.22;;;3.58;;
52072;SDS011;38074;51.232;6.826;2022-09-12T05:50:49;11.30;;;4.25;;
52072;SDS011;38074;51.232;6.826;2022-09-12T05:58:04;11.37;;;4.00;;
52072;SDS011;38074;51.232;6.826;2022-09-12T06:05:21;10.47;;;4.83;;
52072;SDS011;38074;51.232;6.826;2022-09-12T06:12:36;12.07;;;6.23;;
52072;SDS011;38074;51.232;6.826;2022-09-12T06:19:52;16.27;;;7.43;;
52072;SDS011;38074;51.232;6.826;2022-09-12T06:27:07;10.90;;;7.23;;
52072;SDS011;38074;51.232;6.826;2022-09-12T06:34:23;13.37;;;7.50;;
52072;SDS011;38074;51.232;6.826;2022-09-12T06:41:41;12.65;;;7.15;;
52072;SDS011;38074;51.232;6.826;2022-09-12T06:48:56;12.77;;;6.70;;
52072;SDS011;38074;51.232;6.826;2022-09-12T06:56:15;15.13;;;6.70;;
52072;SDS011;38074;51.232;6.826;2022-09-12T07:03:33;10.93;;;6.95;;
52072;SDS011;38074;51.232;6.826;2022-09-12T07:10:49;19.42;;;7.22;;
52072;SDS011;38074;51.232;6.826;2022-09-12T07:18:05;12.70;;;7.33;;
52072;SDS011;38074;51.232;6.826;2022-09-12T07:25:20;11.75;;;7.07;;
52072;SDS011;38074;51.232;6.826;2022-09-12T07:32:36;11.38;;;6.38;;
52072;SDS011;38074;51.232;6.826;2022-09-12T07:39:51;10.03;;;7.07;;
52072;SDS011;38074;51.232;6.826;2022-09-12T07:47:07;10.30;;;6.80;;
52072;SDS011;38074;51.232;6.826;2022-09-12T07:54:23;11.88;;;7.57;;
52072;SDS011;38074;51.232;6.826;2022-09-12T08:01:38;13.93;;;8.33;;
52072;SDS011;38074;51.232;6.826;2022-09-12T08:08:56;10.75;;;7.18;;
52072;SDS011;38074;51.232;6.826;2022-09-12T08:16:16;9.70;;;5.23;;
52072;SDS011;38074;51.232;6.826;2022-09-12T08:23:34;6.43;;;3.80;;
52072;SDS011;38074;51.232;6.826;2022-09-12T08:30:50;7.63;;;3.83;;
52072;SDS011;38074;51.232;6.826;2022-09-12T08:38:06;9.15;;;3.88;;
52072;SDS011;38074;51.232;6.826;2022-09-12T08:45:24;8.63;;;3.83;;
52072;SDS011;38074;51.232;6.826;2022-09-12T08:52:56;6.05;;;3.40;;
52072;SDS011;38074;51.232;6.826;2022-09-12T09:00:17;3.90;;;2.53;;
52072;SDS011;38074;51.232;6.826;2022-09-12T09:22:59;6.47;;;3.25;;
52072;SDS011;38074;51.232;6.826;2022-09-12T09:30:34;4.20;;;3.20;;
52072;SDS011;38074;51.232;6.826;2022-09-12T09:45:17;5.20;;;2.95;;
52072;SDS011;38074;51.232;6.826;2022-09-12T09:52:35;4.00;;;3.13;;
52072;SDS011;38074;51.232;6.826;2022-09-12T09:59:51;5.35;;;3.05;;
52072;SDS011;38074;51.232;6.826;2022-09-12T10:07:16;3.63;;;2.60;;
52072;SDS011;38074;51.232;6.826;2022-09-12T10:14:34;4.45;;;2.80;;
52072;SDS011;38074;51.232;6.826;2022-09-12T10:21:51;6.43;;;2.97;;
52072;SDS011;38074;51.232;6.826;2022-09-12T10:29:11;6.72;;;3.05;;
52072;SDS011;38074;51.232;6.826;2022-09-12T10:36:37;3.72;;;2.28;;
52072;SDS011;38074;51.232;6.826;2022-09-12T10:44:00;4.93;;;2.22;;
52072;SDS011;38074;51.232;6.826;2022-09-12T10:51:28;5.82;;;2.70;;
52072;SDS011;38074;51.232;6.826;2022-09-12T11:06:15;4.78;;;2.70;;
52072;SDS011;38074;51.232;6.826;2022-09-12T11:35:48;2.30;;;1.65;;
52072;SDS011;38074;51.232;6.826;2022-09-12T11:43:19;3.25;;;1.70;;
52072;SDS011;38074;51.232;6.826;2022-09-12T11:50:41;2.70;;;1.87;;
52072;SDS011;38074;51.232;6.826;2022-09-12T11:57:57;2.47;;;1.33;;
52072;SDS011;38074;51.232;6.826;2022-09-12T12:12:44;3.35;;;1.52;;
52072;SDS011;38074;51.232;6.826;2022-09-12T12:20:00;1.65;;;1.08;;
52072;SDS011;38074;51.232;6.826;2022-09-12T12:27:22;2.10;;;1.30;;
52072;SDS011;38074;51.232;6.826;2022-09-12T12:35:02;2.95;;;1.05;;
52072;SDS011;38074;51.232;6.826;2022-09-12T12:42:57;2.83;;;1.27;;
52072;SDS011;38074;51.232;6.826;2022-09-12T13:04:54;4.35;;;0.95;;
52072;SDS011;38074;51.232;6.826;2022-09-12T13:12:20;1.05;;;0.90;;
52072;SDS011;38074;51.232;6.826;2022-09-12T13:19:37;0.90;;;0.70;;
52072;SDS011;38074;51.232;6.826;2022-09-12T13:26:54;1.13;;;0.75;;
52072;SDS011;38074;51.232;6.826;2022-09-12T13:34:14;1.50;;;1.00;;
52072;SDS011;38074;51.232;6.826;2022-09-12T13:49:21;3.08;;;1.20;;
52072;SDS011;38074;51.232;6.826;2022-09-12T13:56:46;3.25;;;1.27;;
52072;SDS011;38074;51.232;6.826;2022-09-12T14:04:13;2.30;;;1.40;;
52072;SDS011;38074;51.232;6.826;2022-09-12T14:11:52;1.95;;;1.15;;
52072;SDS011;38074;51.232;6.826;2022-09-12T14:19:09;7.57;;;1.45;;
52072;SDS011;38074;51.232;6.826;2022-09-12T14:26:27;6.53;;;1.58;;
52072;SDS011;38074;51.232;6.826;2022-09-12T14:33:53;5.32;;;1.38;;
52072;SDS011;38074;51.232;6.826;2022-09-12T14:41:10;4.60;;;1.40;;
52072;SDS011;38074;51.232;6.826;2022-09-12T14:48:31;5.13;;;1.50;;
52072;SDS011;38074;51.232;6.826;2022-09-12T14:55:52;5.25;;;1.40;;
52072;SDS011;38074;51.232;6.826;2022-09-12T15:03:18;2.20;;;1.20;;
52072;SDS011;38074;51.232;6.826;2022-09-12T15:10:40;2.35;;;1.35;;
52072;SDS011;38074;51.232;6.826;2022-09-12T15:17:56;1.60;;;1.42;;
52072;SDS011;38074;51.232;6.826;2022-09-12T15:25:12;2.47;;;1.25;;
52072;SDS011;38074;51.232;6.826;2022-09-12T15:32:28;2.15;;;1.20;;
52072;SDS011;38074;51.232;6.826;2022-09-12T15:39:44;2.35;;;1.27;;
52072;SDS011;38074;51.232;6.826;2022-09-12T15:47:00;2.67;;;1.57;;
52072;SDS011;38074;51.232;6.826;2022-09-12T15:54:16;2.67;;;1.88;;
52072;SDS011;38074;51.232;6.826;2022-09-12T16:01:33;4.43;;;1.50;;
52072;SDS011;38074;51.232;6.826;2022-09-12T16:08:49;5.60;;;1.57;;
52072;SDS011;38074;51.232;6.826;2022-09-12T16:16:04;5.60;;;1.90;;
52072;SDS011;38074;51.232;6.826;2022-09-12T16:23:21;2.10;;;1.48;;
52072;SDS011;38074;51.232;6.826;2022-09-12T16:30:38;5.05;;;2.10;;
52072;SDS011;38074;51.232;6.826;2022-09-12T16:45:11;3.25;;;2.22;;
52072;SDS011;38074;51.232;6.826;2022-09-12T16:52:27;6.38;;;2.30;;
52072;SDS011;38074;51.232;6.826;2022-09-12T16:59:44;2.80;;;2.10;;
52072;SDS011;38074;51.232;6.826;2022-09-12T17:06:59;4.10;;;2.58;;
52072;SDS011;38074;51.232;6.826;2022-09-12T17:14:15;3.10;;;1.80;;
52072;SDS011;38074;51.232;6.826;2022-09-12T17:21:31;4.18;;;1.90;;
52072;SDS011;38074;51.232;6.826;2022-09-12T17:28:47;3.50;;;2.05;;
52072;SDS011;38074;51.232;6.826;2022-09-12T17:36:04;2.80;;;1.85;;
52072;SDS011;38074;51.232;6.826;2022-09-12T17:43:22;3.55;;;1.90;;
52072;SDS011;38074;51.232;6.826;2022-09-12T17:50:38;2.78;;;1.92;;
52072;SDS011;38074;51.232;6.826;2022-09-12T17:57:54;4.10;;;1.83;;
52072;SDS011;38074;51.232;6.826;2022-09-12T18:05:10;3.87;;;1.77;;
52072;SDS011;38074;51.232;6.826;2022-09-12T18:12:25;6.17;;;1.80;;
52072;SDS011;38074;51.232;6.826;2022-09-12T18:19:41;6.10;;;2.43;;
52072;SDS011;38074;51.232;6.826;2022-09-12T18:26:57;6.07;;;1.97;;
52072;SDS011;38074;51.232;6.826;2022-09-12T18:34:14;5.03;;;1.88;;
52072;SDS011;38074;51.232;6.826;2022-09-12T18:41:30;5.60;;;2.10;;
52072;SDS011;38074;51.232;6.826;2022-09-12T18:48:46;5.80;;;2.42;;
52072;SDS011;38074;51.232;6.826;2022-09-12T18:56:05;4.25;;;2.35;;
52072;SDS011;38074;51.232;6.826;2022-09-12T19:03:22;4.93;;;2.00;;
52072;SDS011;38074;51.232;6.826;2022-09-12T19:10:38;5.33;;;1.80;;
52072;SDS011;38074;51.232;6.826;2022-09-12T19:17:54;4.25;;;2.28;;
52072;SDS011;38074;51.232;6.826;2022-09-12T19:25:10;3.92;;;2.28;;
52072;SDS011;38074;51.232;6.826;2022-09-12T19:32:25;2.70;;;2.17;;
52072;SDS011;38074;51.232;6.826;2022-09-12T19:39:41;2.43;;;1.90;;
52072;SDS011;38074;51.232;6.826;2022-09-12T19:54:14;3.42;;;1.75;;
52072;SDS011;38074;51.232;6.826;2022-09-12T20:01:29;2.72;;;1.70;;
52072;SDS011;38074;51.232;6.826;2022-09-12T20:08:45;2.65;;;1.95;;
52072;SDS011;38074;51.232;6.826;2022-09-12T20:16:04;3.45;;;2.10;;
52072;SDS011;38074;51.232;6.826;2022-09-12T20:23:21;2.58;;;1.58;;
52072;SDS011;38074;51.232;6.826;2022-09-12T20:30:37;4.27;;;1.37;;
52072;SDS011;38074;51.232;6.826;2022-09-12T20:37:53;3.55;;;2.00;;
52072;SDS011;38074;51.232;6.826;2022-09-12T20:45:08;4.30;;;2.03;;
52072;SDS011;38074;51.232;6.826;2022-09-12T20:52:24;2.43;;;1.40;;
52072;SDS011;38074;51.232;6.826;2022-09-12T20:59:39;2.73;;;1.50;;
52072;SDS011;38074;51.232;6.826;2022-09-12T21:06:56;2.85;;;1.50;;
52072;SDS011;38074;51.232;6.826;2022-09-12T21:14:12;3.03;;;1.50;;
52072;SDS011;38074;51.232;6.826;2022-09-12T21:21:27;2.40;;;1.20;;
52072;SDS011;38074;51.232;6.826;2022-09-12T21:28:43;2.63;;;1.40;;
52072;SDS011;38074;51.232;6.826;2022-09-12T21:36:02;1.27;;;1.00;;
52072;SDS011;38074;51.232;6.826;2022-09-12T21:43:19;4.35;;;1.35;;
52072;SDS011;38074;51.232;6.826;2022-09-12T21:50:34;1.92;;;1.60;;
52072;SDS011;38074;51.232;6.826;2022-09-12T21:57:50;2.05;;;1.50;;
52072;SDS011;38074;51.232;6.826;2022-09-12T22:05:06;1.95;;;1.20;;
52072;SDS011;38074;51.232;6.826;2022-09-12T22:12:23;1.08;;;0.90;;
52072;SDS011;38074;51.232;6.826;2022-09-12T22:19:41;2.95;;;1.33;;
52072;SDS011;38074;51.232;6.826;2022-09-12T22:26:57;1.20;;;0.85;;
52072;SDS011;38074;51.232;6.826;2022-09-12T22:34:13;1.93;;;1.07;;
52072;SDS011;38074;51.232;6.826;2022-09-12T22:41:29;1.17;;;0.90;;
52072;SDS011;38074;51.232;6.826;2022-09-12T22:48:44;1.48;;;1.00;;
52072;SDS011;38074;51.232;6.826;2022-09-12T22:56:00;2.10;;;1.37;;
52072;SDS011;38074;51.232;6.826;2022-09-12T23:03:18;2.10;;;0.90;;
52072;SDS011;38074;51.232;6.826;2022-09-12T23:10:34;1.27;;;0.90;;
52072;SDS011;38074;51.232;6.826;2022-09-12T23:17:51;1.42;;;0.98;;
52072;SDS011;38074;51.232;6.826;2022-09-12T23:25:07;1.45;;;0.90;;
52072;SDS011;38074;51.232;6.826;2022-09-12T23:32:22;1.17;;;0.80;;
52072;SDS011;38074;51.232;6.826;2022-09-12T23:39:38;1.30;;;0.98;;
52072;SDS011;38074;51.232;6.826;2022-09-12T23:46:54;1.75;;;1.10;;
52072;SDS011;38074;51.232;6.826;2022-09-12T23:54:09;1.50;;;0.80;;
